Time;durP1;ratioP1;P1;durP2;ratioP2;P2;SDS_P1;SDS_P2;PMS_P1;PMS_P2;Temp;Humidity;BMP_temperature;BMP_pressure;BME280_temperature;BME280_humidity;BME280_pressure;Samples;Min_cycle;Max_cycle;Signal;HPM_P1;HPM_P2
2022/02/25 00:00:31;;;;;;;0.77;0.50;;;;;;;7.98;49.81;100639.16;4957378;28;96900;-75
2022/02/25 00:02:57;;;;;;;2.55;0.57;;;;;;;8.21;49.43;100646.44;4954502;28;96929;-76
2022/02/25 00:05:24;;;;;;;2.08;0.50;;;;;;;7.97;49.41;100653.22;4958185;28;99116;-77
2022/02/25 00:07:51;;;;;;;1.27;0.40;;;;;;;8.14;48.90;100645.72;4960213;28;99820;-77
2022/02/25 00:10:19;;;;;;;5.38;0.52;;;;;;;7.71;49.86;100672.31;4957539;28;96924;-76
2022/02/25 00:12:47;;;;;;;2.72;0.55;;;;;;;8.23;48.55;100674.44;4955057;28;96828;-76
2022/02/25 00:15:14;;;;;;;3.25;0.60;;;;;;;8.70;47.64;100682.84;4953630;28;98925;-75
2022/02/25 00:17:40;;;;;;;0.73;0.50;;;;;;;8.66;47.69;100686.47;4958782;28;98956;-76
2022/02/25 00:20:08;;;;;;;1.10;0.60;;;;;;;8.88;46.99;100691.97;4957442;28;96862;-73
2022/02/25 00:22:34;;;;;;;4.82;0.50;;;;;;;8.76;47.08;100698.47;4952557;28;96951;-74
2022/02/25 00:25:01;;;;;;;1.50;0.55;;;;;;;9.05;46.41;100701.13;4961499;28;99104;-75
2022/02/25 00:27:29;;;;;;;1.15;0.50;;;;;;;9.08;46.42;100713.31;4962242;28;98887;-74
2022/02/25 00:29:55;;;;;;;2.53;0.50;;;;;;;8.88;46.94;100719.19;4956914;28;99423;-74
2022/02/25 00:32:21;;;;;;;1.42;0.40;;;;;;;8.76;46.76;100727.44;4956953;28;96934;-75
2022/02/25 00:34:48;;;;;;;2.70;0.90;;;;;;;8.82;47.16;100732.53;4954877;28;97689;-75
2022/02/25 00:37:14;;;;;;;3.67;0.68;;;;;;;8.62;47.39;100732.22;4955710;28;98823;-74
2022/02/25 00:39:40;;;;;;;3.40;0.70;;;;;;;8.49;47.16;100739.59;4955225;28;97176;-77
2022/02/25 00:42:10;;;;;;;3.35;0.60;;;;;;;9.25;45.82;100741.84;4954740;28;97455;-76
2022/02/25 00:44:38;;;;;;;2.22;0.77;;;;;;;8.87;45.69;100746.44;4959918;28;98960;-76
2022/02/25 00:47:06;;;;;;;1.92;0.50;;;;;;;8.93;45.33;100750.66;4953162;28;98930;-77
2022/02/25 00:49:33;;;;;;;2.25;0.65;;;;;;;8.83;46.06;100771.16;4957111;28;97355;-75
2022/02/25 00:51:59;;;;;;;2.50;0.60;;;;;;;8.60;45.62;100770.94;4956251;28;96990;-75
2022/02/25 00:54:26;;;;;;;4.22;0.57;;;;;;;8.27;46.74;100777.91;4959556;28;99400;-76
2022/02/25 00:56:52;;;;;;;2.20;0.60;;;;;;;8.70;45.98;100783.81;4951352;28;98857;-76
2022/02/25 00:59:18;;;;;;;4.47;1.08;;;;;;;8.20;46.89;100781.59;4953665;28;97618;-78
2022/02/25 01:01:47;;;;;;;3.70;0.77;;;;;;;8.73;45.65;100783.72;4953311;28;97219;-77
2022/02/25 01:04:14;;;;;;;2.97;1.00;;;;;;;8.94;45.17;100786.66;4959748;28;99061;-76
2022/02/25 01:06:40;;;;;;;7.20;0.80;;;;;;;7.90;47.26;100791.09;4951298;28;99412;-76
2022/02/25 01:09:07;;;;;;;2.45;0.82;;;;;;;8.53;46.17;100806.25;4956386;28;97605;-76
2022/02/25 01:11:33;;;;;;;5.85;0.57;;;;;;;8.55;45.58;100802.66;4956002;28;96953;-76
2022/02/25 01:14:00;;;;;;;2.33;0.50;;;;;;;8.49;46.26;100807.22;4949762;28;97802;-75
2022/02/25 01:16:26;;;;;;;3.35;0.52;;;;;;;8.69;45.54;100802.28;4957408;28;99015;-76
2022/02/25 01:18:54;;;;;;;2.28;0.63;;;;;;;8.71;45.72;100814.53;4949759;28;98772;-76
2022/02/25 01:21:20;;;;;;;1.80;0.60;;;;;;;8.76;45.53;100812.63;4953742;28;96895;-76
2022/02/25 01:23:47;;;;;;;4.50;0.80;;;;;;;8.75;45.59;100815.28;4961178;28;97941;-77
2022/02/25 01:26:13;;;;;;;1.20;0.60;;;;;;;8.77;46.12;100831.94;4952627;28;98925;-76
2022/02/25 01:28:40;;;;;;;3.35;0.80;;;;;;;8.54;46.38;100819.34;4959652;28;96794;-76
2022/02/25 01:31:06;;;;;;;5.70;0.70;;;;;;;8.82;45.65;100826.53;4960892;28;96953;-77
2022/02/25 01:33:32;;;;;;;3.08;0.52;;;;;;;8.99;44.93;100833.06;4957664;28;99013;-77
2022/02/25 01:36:00;;;;;;;1.65;0.60;;;;;;;8.79;45.89;100840.66;4955954;28;97758;-77
2022/02/25 01:38:27;;;;;;;0.82;0.60;;;;;;;8.50;46.31;100835.28;4960457;28;96900;-76
2022/02/25 01:40:54;;;;;;;4.30;0.65;;;;;;;8.45;46.80;100837.16;4948891;28;97647;-76
2022/02/25 01:43:21;;;;;;;4.97;0.70;;;;;;;8.97;45.43;100849.84;4961526;28;98890;-76
2022/02/25 01:45:48;;;;;;;2.25;0.65;;;;;;;9.29;45.25;100835.75;4959705;28;99089;-76
2022/02/25 01:48:14;;;;;;;4.57;0.88;;;;;;;9.12;44.73;100839.72;4957889;28;96716;-76
2022/02/25 01:50:40;;;;;;;4.05;0.88;;;;;;;8.89;45.82;100851.81;4955535;28;96889;-75
2022/02/25 01:53:09;;;;;;;3.55;0.90;;;;;;;9.03;45.17;100857.56;4961963;28;99048;-76
2022/02/25 01:55:37;;;;;;;9.23;0.90;;;;;;;9.11;45.61;100859.09;4960475;28;99138;-75
2022/02/25 01:58:04;;;;;;;2.83;0.70;;;;;;;8.75;45.88;100852.19;4960379;28;98355;-76
2022/02/25 02:00:31;;;;;;;5.53;1.10;;;;;;;9.03;45.54;100855.81;4957647;28;97137;-76
2022/02/25 02:02:57;;;;;;;4.68;0.82;;;;;;;9.23;45.14;100859.66;4954881;28;98955;-77
2022/02/25 02:05:25;;;;;;;4.03;1.05;;;;;;;9.33;44.93;100867.25;4958389;28;99260;-77
2022/02/25 02:07:51;;;;;;;3.10;0.98;;;;;;;9.19;45.59;100850.97;4953299;28;96824;-77
2022/02/25 02:10:19;;;;;;;1.50;0.77;;;;;;;9.28;45.14;100863.03;4954782;28;96909;-76
2022/02/25 02:12:46;;;;;;;7.00;0.93;;;;;;;9.09;46.03;100871.44;4960160;28;98823;-76
2022/02/25 02:15:13;;;;;;;2.72;0.90;;;;;;;9.29;45.18;100867.41;4976395;22;99469;-75
2022/02/25 02:17:39;;;;;;;5.07;1.10;;;;;;;9.39;45.21;100869.72;4984468;28;96791;-74
2022/02/25 02:20:06;;;;;;;6.18;1.10;;;;;;;9.20;45.69;100879.91;4987380;28;96889;-75
2022/02/25 02:22:35;;;;;;;2.58;0.73;;;;;;;9.16;45.70;100880.06;4988593;28;99270;-74
2022/02/25 02:25:02;;;;;;;7.70;0.98;;;;;;;8.86;46.16;100881.72;4993079;28;99764;-75
2022/02/25 02:30:11;;;;;;;8.55;1.25;;;;;;;8.68;46.88;100883.06;4976161;28;98963;-74
2022/02/25 02:32:37;;;;;;;2.65;0.70;;;;;;;8.66;46.74;100891.94;4981810;28;99132;-74
2022/02/25 02:35:04;;;;;;;2.67;1.08;;;;;;;8.91;46.54;100889.53;4979094;28;99266;-74
2022/02/25 02:37:31;;;;;;;4.05;0.85;;;;;;;8.54;47.15;100897.50;4980936;28;97432;-74
2022/02/25 02:39:58;;;;;;;9.57;1.48;;;;;;;8.88;46.51;100906.28;4986916;28;96832;-75
2022/02/25 02:42:25;;;;;;;4.05;1.15;;;;;;;8.58;47.05;100901.81;5000879;28;97874;-75
2022/02/25 02:44:51;;;;;;;7.82;0.90;;;;;;;8.60;47.24;100902.63;4994672;28;98013;-74
2022/02/25 02:47:17;;;;;;;5.85;1.10;;;;;;;8.80;46.61;100905.59;4980113;28;96866;-75
2022/02/25 02:49:44;;;;;;;8.35;1.23;;;;;;;8.82;46.90;100909.06;4979838;28;96849;-74
2022/02/25 02:52:10;;;;;;;5.63;1.10;;;;;;;8.82;46.46;100911.72;4983501;28;99621;-74
2022/02/25 02:54:36;;;;;;;9.07;1.10;;;;;;;8.70;46.64;100922.56;4973182;28;101257;-75
2022/02/25 02:57:05;;;;;;;7.78;1.33;;;;;;;8.37;47.42;100922.47;4972961;28;97752;-74
2022/02/25 02:59:31;;;;;;;9.32;1.30;;;;;;;8.66;46.60;100923.56;4980179;28;98116;-74
2022/02/25 03:01:57;;;;;;;4.57;1.08;;;;;;;8.64;46.78;100915.69;4980906;28;98958;-74
2022/02/25 03:04:24;;;;;;;6.47;1.10;;;;;;;8.49;47.09;100915.19;4983582;28;100055;-74
2022/02/25 03:06:50;;;;;;;8.07;1.98;;;;;;;8.22;47.57;100917.53;4974979;28;98422;-74
2022/02/25 03:09:17;;;;;;;8.65;1.63;;;;;;;8.78;46.71;100923.25;4980758;28;97503;-74
2022/02/25 03:11:44;;;;;;;16.83;1.58;;;;;;;8.29;47.84;100926.16;4975841;28;99329;-74
2022/02/25 03:14:11;;;;;;;6.82;1.40;;;;;;;8.44;47.76;100932.88;4985856;28;99146;-74
2022/02/25 03:16:38;;;;;;;9.05;1.45;;;;;;;8.09;48.16;100941.53;4975973;28;97285;-74
2022/02/25 03:19:04;;;;;;;6.47;1.45;;;;;;;8.70;47.22;100939.25;4974320;28;96810;-74
2022/02/25 03:21:31;;;;;;;5.18;1.35;;;;;;;8.60;47.39;100936.88;4976102;28;98841;-75
2022/02/25 03:23:57;;;;;;;5.80;1.23;;;;;;;8.34;47.97;100948.88;4979833;28;98890;-74
2022/02/25 03:26:23;;;;;;;9.55;1.52;;;;;;;8.10;48.66;100954.66;4979514;28;97590;-75
2022/02/25 03:28:49;;;;;;;7.20;2.20;;;;;;;8.30;48.36;100952.50;4977384;28;97515;-75
2022/02/25 03:31:18;;;;;;;17.65;2.00;;;;;;;7.82;49.56;100954.38;4985795;28;99036;-74
2022/02/25 03:33:44;;;;;;;7.00;2.03;;;;;;;8.11;48.85;100955.53;4973735;28;99269;-75
2022/02/25 03:36:10;;;;;;;16.85;1.88;;;;;;;8.05;49.16;100956.53;4978755;28;96920;-74
2022/02/25 03:38:37;;;;;;;7.13;1.80;;;;;;;8.28;48.27;100959.50;4973167;28;99022;-75
2022/02/25 03:41:03;;;;;;;7.10;1.67;;;;;;;8.06;48.99;100968.81;4976817;28;99074;-74
2022/02/25 03:43:29;;;;;;;10.55;1.63;;;;;;;8.50;48.00;100965.19;4979743;28;99656;-74
2022/02/25 03:45:56;;;;;;;8.50;1.60;;;;;;;8.29;48.48;100976.19;4972680;28;96679;-74
2022/02/25 03:48:23;;;;;;;7.30;1.35;;;;;;;8.34;48.25;100975.19;4976795;28;98938;-74
2022/02/25 03:50:50;;;;;;;6.55;1.42;;;;;;;8.22;48.75;100978.09;4976438;28;99223;-74
2022/02/25 03:53:16;;;;;;;11.38;1.60;;;;;;;8.13;48.97;100983.56;4977442;28;99038;-75
2022/02/25 03:55:42;;;;;;;7.70;1.80;;;;;;;8.36;48.33;100989.22;4981312;28;96817;-74
2022/02/25 03:58:09;;;;;;;8.23;1.35;;;;;;;7.97;49.30;100990.03;4978840;28;96987;-76
2022/02/25 04:00:35;;;;;;;10.90;1.98;;;;;;;7.80;49.62;100994.78;4972872;28;99547;-75
2022/02/25 04:03:02;;;;;;;11.93;1.80;;;;;;;8.11;49.23;100990.63;4974363;28;101937;-74
2022/02/25 04:05:30;;;;;;;9.32;1.55;;;;;;;8.13;48.74;100996.72;4981328;28;98176;-75
2022/02/25 04:07:56;;;;;;;10.32;1.75;;;;;;;7.97;49.53;101004.06;4980812;28;97194;-75
2022/02/25 04:10:23;;;;;;;11.60;2.10;;;;;;;7.83;49.65;101005.25;4979743;28;102541;-76
2022/02/25 04:12:49;;;;;;;7.53;1.38;;;;;;;7.97;49.38;101011.97;4976767;28;99643;-74
2022/02/25 04:15:16;;;;;;;7.65;1.48;;;;;;;8.00;49.37;101017.19;4972492;28;97986;-75
2022/02/25 04:17:43;;;;;;;10.00;1.58;;;;;;;8.28;48.63;101022.69;4980925;28;97024;-75
2022/02/25 04:20:10;;;;;;;6.78;1.45;;;;;;;8.01;49.05;101021.50;4983142;28;99354;-75
2022/02/25 04:22:38;;;;;;;6.45;2.08;;;;;;;7.93;49.49;101030.47;4981319;28;99324;-75
2022/02/25 04:25:05;;;;;;;7.18;2.00;;;;;;;7.82;49.65;101032.44;4997589;28;96713;-76
2022/02/25 04:27:31;;;;;;;9.95;1.50;;;;;;;7.86;49.75;101042.91;4995789;28;96795;-75
2022/02/25 04:29:58;;;;;;;9.48;1.85;;;;;;;7.56;50.50;101038.19;4988599;28;99284;-75
2022/02/25 04:32:24;;;;;;;5.10;1.55;;;;;;;7.47;50.50;101044.50;4978903;28;98916;-75
2022/02/25 04:34:50;;;;;;;6.30;1.30;;;;;;;7.85;49.73;101048.19;4976050;28;96854;-75
2022/02/25 04:37:17;;;;;;;16.67;2.20;;;;;;;8.12;49.27;101052.91;4979632;28;96767;-74
2022/02/25 04:39:45;;;;;;;11.88;1.70;;;;;;;8.12;49.01;101052.03;4980465;28;99016;-76
2022/02/25 04:42:11;;;;;;;10.68;2.65;;;;;;;8.09;49.19;101058.22;4973626;28;99213;-75
2022/02/25 04:44:38;;;;;;;7.40;1.40;;;;;;;7.85;49.83;101053.44;4982061;28;96858;-74
2022/02/25 04:47:04;;;;;;;13.98;2.53;;;;;;;7.83;49.66;101066.63;4981351;28;96899;-73
2022/02/25 04:49:31;;;;;;;8.82;1.67;;;;;;;7.92;49.59;101065.59;4984009;28;99005;-74
2022/02/25 04:51:57;;;;;;;11.68;2.00;;;;;;;7.69;50.11;101067.78;4973372;28;99300;-73
2022/02/25 04:54:24;;;;;;;11.07;1.65;;;;;;;7.81;49.62;101067.56;4980618;28;99222;-75
2022/02/25 04:56:51;;;;;;;5.00;1.50;;;;;;;7.63;50.27;101067.88;4979920;28;98305;-75
2022/02/25 04:59:18;;;;;;;6.35;1.45;;;;;;;7.43;51.12;101071.75;4974906;28;99913;-75
2022/02/25 05:01:46;;;;;;;10.20;1.70;;;;;;;7.49;50.89;101079.50;4973603;28;99463;-75
2022/02/25 05:04:13;;;;;;;18.33;1.98;;;;;;;7.56;50.50;101083.78;4977855;28;96836;-75
2022/02/25 05:06:39;;;;;;;10.15;1.80;;;;;;;7.79;50.07;101080.75;4983732;28;97115;-74
2022/02/25 05:09:06;;;;;;;3.15;1.38;;;;;;;7.77;49.54;101076.38;4984677;28;99089;-75
2022/02/25 05:11:32;;;;;;;11.52;1.50;;;;;;;7.85;49.63;101075.34;4976922;28;99714;-75
2022/02/25 05:14:02;;;;;;;12.90;1.60;;;;;;;7.85;49.54;101085.00;4983764;28;97563;-75
2022/02/25 05:21:57;;;;;;;13.15;1.92;;;;;;;7.67;50.03;101080.97;4984610;28;97076;-75
2022/02/25 05:24:23;;;;;;;13.55;1.80;;;;;;;7.45;50.44;101079.59;4979159;28;97485;-75
2022/02/25 05:26:50;;;;;;;16.52;2.30;;;;;;;7.52;50.30;101082.09;4981335;28;96857;-76
2022/02/25 05:29:17;;;;;;;9.50;1.70;;;;;;;7.63;49.69;101083.66;4981532;28;99097;-75
2022/02/25 05:31:44;;;;;;;7.55;2.08;;;;;;;7.83;49.50;101095.56;4987143;28;98919;-75
2022/02/25 05:34:10;;;;;;;11.93;1.70;;;;;;;8.05;49.11;101092.53;4979770;28;96830;-74
2022/02/25 05:36:36;;;;;;;10.15;1.65;;;;;;;7.87;49.35;101099.03;4975877;28;97232;-75
2022/02/25 05:39:03;;;;;;;10.30;1.60;;;;;;;7.86;49.38;101099.91;4979487;28;99132;-75
2022/02/25 05:41:29;;;;;;;12.23;1.88;;;;;;;7.71;49.51;101102.81;4977724;28;99577;-75
2022/02/25 05:43:55;;;;;;;9.18;1.90;;;;;;;7.97;48.88;101101.44;4982527;28;96915;-75
2022/02/25 05:46:23;;;;;;;10.30;2.00;;;;;;;8.11;48.81;101106.44;4982342;28;96837;-76
2022/02/25 05:48:49;;;;;;;9.57;2.15;;;;;;;7.78;49.63;101109.69;4976715;28;98952;-76
2022/02/25 05:51:16;;;;;;;8.60;1.70;;;;;;;7.93;49.17;101114.69;4978220;28;99429;-76
2022/02/25 05:53:42;;;;;;;8.43;1.67;;;;;;;7.82;49.39;101122.75;4982215;28;96842;-75
2022/02/25 05:56:08;;;;;;;7.05;1.60;;;;;;;7.73;49.27;101122.94;4985723;28;96807;-75
2022/02/25 05:58:35;;;;;;;11.70;2.80;;;;;;;7.46;50.05;101126.91;4983723;28;99199;-75
2022/02/25 06:01:01;;;;;;;10.15;1.48;;;;;;;7.65;49.67;101129.22;4984573;28;98845;-74
2022/02/25 06:03:29;;;;;;;6.85;1.80;;;;;;;7.81;49.21;101125.44;4985797;28;97844;-73
2022/02/25 06:05:55;;;;;;;5.88;1.70;;;;;;;7.75;49.06;101122.88;4985892;28;97662;-75
2022/02/25 06:08:21;;;;;;;7.47;2.38;;;;;;;7.48;49.92;101138.25;4996988;28;99037;-73
2022/02/25 06:10:48;;;;;;;14.73;2.03;;;;;;;7.73;49.52;101127.34;5012655;28;100030;-74
2022/02/25 06:13:14;;;;;;;9.50;1.90;;;;;;;8.00;48.68;101132.97;4981691;28;97546;-73
2022/02/25 06:15:43;;;;;;;10.15;2.03;;;;;;;7.78;49.11;101131.63;4978213;28;97797;-73
2022/02/25 06:18:09;;;;;;;5.22;1.88;;;;;;;7.74;49.26;101137.84;4976333;28;99356;-74
2022/02/25 06:20:36;;;;;;;7.40;2.95;;;;;;;7.93;48.95;101136.59;4982531;28;99284;-74
2022/02/25 06:23:04;;;;;;;12.80;1.80;;;;;;;7.94;48.77;101137.47;4982588;28;99003;-75
2022/02/25 06:25:30;;;;;;;11.70;2.00;;;;;;;7.77;49.12;101144.78;4975577;28;97001;-74
2022/02/25 06:27:57;;;;;;;12.38;2.00;;;;;;;7.90;49.01;101138.41;4976632;28;99172;-73
2022/02/25 06:30:23;;;;;;;12.50;2.03;;;;;;;7.83;48.86;101149.94;4974889;28;98996;-75
2022/02/25 06:32:49;;;;;;;8.68;1.88;;;;;;;7.86;48.74;101150.78;4975958;28;97162;-75
2022/02/25 06:35:16;;;;;;;5.85;1.55;;;;;;;8.11;48.27;101155.56;4979558;28;96910;-75
2022/02/25 06:37:43;;;;;;;9.48;2.10;;;;;;;8.15;48.41;101151.97;4979789;28;104721;-76
2022/02/25 06:40:12;;;;;;;8.00;2.08;;;;;;;8.43;47.31;101152.34;4978654;28;99718;-75
2022/02/25 06:42:39;;;;;;;7.82;1.77;;;;;;;8.39;47.29;101144.53;4988137;28;96998;-74
2022/02/25 06:45:06;;;;;;;15.93;2.03;;;;;;;8.04;47.89;101146.91;4976986;28;97133;-75
2022/02/25 06:47:32;;;;;;;4.70;1.30;;;;;;;8.31;47.46;101149.06;4979230;28;99083;-75
2022/02/25 06:49:59;;;;;;;9.70;1.90;;;;;;;8.64;46.79;101151.91;4979645;28;99241;-75
2022/02/25 06:52:25;;;;;;;11.35;1.98;;;;;;;8.56;47.03;101151.19;4975617;28;96839;-74
2022/02/25 06:54:53;;;;;;;9.50;2.22;;;;;;;8.37;46.98;101159.47;4980043;28;96890;-75
2022/02/25 06:57:19;;;;;;;8.85;2.25;;;;;;;8.14;47.59;101158.16;4983273;28;99260;-73
2022/02/25 06:59:46;;;;;;;8.70;2.10;;;;;;;8.04;47.62;101167.97;4974983;28;98661;-74
2022/02/25 07:02:12;;;;;;;5.70;1.98;;;;;;;8.27;46.89;101157.88;4982924;28;97012;-75
2022/02/25 07:04:39;;;;;;;8.70;1.85;;;;;;;8.29;46.74;101161.34;4979474;28;97684;-75
2022/02/25 07:07:05;;;;;;;11.50;1.80;;;;;;;8.63;46.07;101168.59;4976312;28;99262;-75
2022/02/25 07:09:32;;;;;;;7.68;1.90;;;;;;;8.52;46.28;101178.50;4984201;28;100171;-75
2022/02/25 07:11:59;;;;;;;6.72;1.70;;;;;;;8.32;46.29;101182.41;4977991;28;97610;-75
2022/02/25 07:14:26;;;;;;;9.35;1.85;;;;;;;8.40;46.51;101180.47;4975235;28;98701;-75
2022/02/25 07:16:52;;;;;;;8.68;2.08;;;;;;;8.51;46.30;101182.03;4979329;28;99324;-74
2022/02/25 07:19:19;;;;;;;9.40;2.15;;;;;;;8.61;45.79;101192.34;4982118;28;99380;-74
2022/02/25 07:21:45;;;;;;;10.32;1.70;;;;;;;8.42;46.42;101192.72;4977751;28;97338;-74
2022/02/25 07:24:11;;;;;;;4.78;1.70;;;;;;;8.29;46.32;101185.03;4980989;28;98325;-74
2022/02/25 07:26:38;;;;;;;14.50;2.40;;;;;;;8.59;45.81;101195.91;4978230;28;99987;-75
2022/02/25 07:29:06;;;;;;;9.73;2.35;;;;;;;8.16;46.60;101201.97;4972466;28;99103;-75
2022/02/25 07:31:32;;;;;;;9.60;2.40;;;;;;;8.44;45.70;101190.94;4977991;28;98581;-75
2022/02/25 07:33:59;;;;;;;9.18;2.10;;;;;;;8.82;44.79;101204.22;4976388;28;98437;-75
2022/02/25 07:36:25;;;;;;;9.32;1.83;;;;;;;8.82;44.75;101192.78;4983158;28;99075;-76
2022/02/25 07:38:52;;;;;;;14.45;2.20;;;;;;;8.86;44.43;101200.59;4977206;28;99333;-75
2022/02/25 07:41:18;;;;;;;7.15;1.98;;;;;;;8.95;44.41;101195.13;4973707;28;98375;-75
2022/02/25 07:43:44;;;;;;;5.30;1.50;;;;;;;8.72;44.43;101198.28;4981472;28;99036;-75
2022/02/25 07:46:12;;;;;;;9.55;1.70;;;;;;;8.79;44.58;101199.84;4982468;28;99427;-75
2022/02/25 07:48:39;;;;;;;11.02;1.98;;;;;;;8.73;44.71;101199.97;4979915;28;99042;-75
2022/02/25 07:51:05;;;;;;;7.93;1.70;;;;;;;8.75;44.37;101205.22;4979431;28;97149;-74
2022/02/25 07:53:33;;;;;;;5.55;1.58;;;;;;;8.75;44.60;101207.88;5002927;28;96736;-74
2022/02/25 07:55:59;;;;;;;7.90;1.58;;;;;;;8.89;43.75;101211.09;5001531;28;98236;-76
2022/02/25 07:58:26;;;;;;;9.30;3.15;;;;;;;8.66;44.15;101216.81;4999755;28;98929;-76
2022/02/25 08:00:52;;;;;;;9.95;2.00;;;;;;;8.66;44.02;101216.81;4997126;28;97055;-76
2022/02/25 08:03:20;;;;;;;9.10;1.80;;;;;;;8.48;44.54;101227.72;4975440;28;97062;-75
2022/02/25 08:05:46;;;;;;;10.05;1.90;;;;;;;8.57;44.13;101232.81;4978504;28;100967;-77
2022/02/25 08:08:13;;;;;;;8.13;2.22;;;;;;;8.54;44.18;101224.97;4980685;28;99137;-74
2022/02/25 08:10:39;;;;;;;6.38;1.98;;;;;;;8.36;44.52;101242.00;4975157;28;96844;-74
2022/02/25 08:13:08;;;;;;;6.55;1.30;;;;;;;8.79;43.95;101228.00;4973409;28;98064;-75
2022/02/25 08:15:35;;;;;;;12.77;2.33;;;;;;;8.78;43.78;101234.16;4973301;28;97976;-74
2022/02/25 08:18:02;;;;;;;9.65;1.67;;;;;;;9.06;43.29;101240.56;4981505;28;98922;-74
2022/02/25 08:20:30;;;;;;;10.68;1.90;;;;;;;9.05;43.09;101253.81;4977070;28;97166;-74
2022/02/25 08:22:57;;;;;;;7.22;1.70;;;;;;;9.10;43.25;101246.66;4978120;28;97733;-74
2022/02/25 08:25:23;;;;;;;12.07;1.83;;;;;;;8.90;43.40;101244.44;4975929;28;98837;-74
2022/02/25 08:27:50;;;;;;;8.02;2.00;;;;;;;8.88;43.37;101248.00;4974580;28;99039;-74
2022/02/25 08:30:16;;;;;;;6.90;1.90;;;;;;;8.91;43.14;101253.22;4980321;28;97294;-74
2022/02/25 08:32:43;;;;;;;7.07;1.60;;;;;;;9.07;43.25;101258.13;4979574;28;96812;-73
2022/02/25 08:35:10;;;;;;;8.23;1.73;;;;;;;9.31;42.54;101258.53;4971188;28;98000;-73
2022/02/25 08:37:38;;;;;;;10.77;1.80;;;;;;;9.71;41.80;101255.84;4980809;28;99358;-73
2022/02/25 08:40:06;;;;;;;5.78;1.63;;;;;;;9.59;41.94;101259.59;4976895;28;97218;-74
2022/02/25 08:42:35;;;;;;;13.30;2.80;;;;;;;9.89;41.44;101273.88;4971730;28;97223;-75
2022/02/25 08:45:02;;;;;;;9.90;2.40;;;;;;;9.09;42.63;101251.06;4974101;28;98447;-74
2022/02/25 08:47:28;;;;;;;9.02;2.22;;;;;;;9.65;41.70;101256.00;4975169;28;99269;-76
2022/02/25 08:49:55;;;;;;;11.75;2.17;;;;;;;9.94;41.21;101251.72;4977926;28;96842;-74
2022/02/25 08:52:21;;;;;;;8.57;2.00;;;;;;;10.06;40.71;101250.53;4976337;28;97120;-75
2022/02/25 08:54:50;;;;;;;7.65;2.13;;;;;;;10.42;40.09;101251.41;4972081;28;99042;-75
2022/02/25 08:57:16;;;;;;;18.02;2.83;;;;;;;9.41;41.63;101253.00;4981971;28;99743;-74
2022/02/25 08:59:43;;;;;;;9.95;1.98;;;;;;;10.16;40.42;101259.13;4975822;28;97159;-75
2022/02/25 09:02:10;;;;;;;10.60;2.08;;;;;;;10.07;40.40;101256.69;4964919;28;97784;-75
2022/02/25 09:04:36;;;;;;;8.65;1.70;;;;;;;9.45;41.49;101259.09;4969833;28;100120;-75
2022/02/25 09:07:04;;;;;;;6.45;2.13;;;;;;;10.02;40.34;101263.88;4974311;28;98931;-74
2022/02/25 09:09:31;;;;;;;17.05;1.95;;;;;;;10.03;40.38;101260.31;4973009;28;96907;-75
2022/02/25 09:11:59;;;;;;;10.77;1.70;;;;;;;10.07;40.08;101251.41;4974130;28;98764;-75
2022/02/25 09:14:28;;;;;;;9.80;1.60;;;;;;;9.73;40.96;101264.56;4972914;28;101340;-75
2022/02/25 09:16:54;;;;;;;7.00;1.52;;;;;;;10.43;39.61;101252.28;4975982;28;99346;-75
2022/02/25 09:19:21;;;;;;;8.65;2.20;;;;;;;10.64;39.38;101255.19;4975075;28;97832;-74
2022/02/25 09:21:47;;;;;;;13.75;2.33;;;;;;;10.56;39.53;101262.47;4972764;28;97510;-74
2022/02/25 09:24:14;;;;;;;12.90;2.03;;;;;;;10.35;39.29;101250.69;4976781;28;99581;-74
2022/02/25 09:26:40;;;;;;;6.32;1.63;;;;;;;10.88;38.56;101261.56;4977978;28;99301;-75
2022/02/25 09:29:09;;;;;;;9.30;1.75;;;;;;;11.37;37.69;101271.56;4972699;28;98820;-75
2022/02/25 09:31:36;;;;;;;6.47;1.35;;;;;;;10.34;39.12;101270.09;4972095;28;96854;-75
2022/02/25 09:34:02;;;;;;;7.88;1.50;;;;;;;10.54;38.93;101266.06;4975115;28;99443;-75
2022/02/25 09:36:29;;;;;;;11.15;1.25;;;;;;;10.13;39.45;101260.03;4975981;28;100963;-73
2022/02/25 09:38:55;;;;;;;7.47;1.70;;;;;;;10.57;39.18;101276.53;4971985;28;96880;-76
2022/02/25 09:41:24;;;;;;;12.23;2.05;;;;;;;10.51;38.75;101282.84;4974223;28;99194;-76
2022/02/25 09:43:51;;;;;;;11.05;1.60;;;;;;;10.15;39.23;101274.09;4972928;28;97700;-74
2022/02/25 09:46:18;;;;;;;12.85;3.00;;;;;;;10.34;38.87;101275.38;4978624;28;99937;-74
2022/02/25 09:48:45;;;;;;;9.32;1.83;;;;;;;10.72;38.67;101273.47;4978829;28;97688;-74
2022/02/25 09:51:11;;;;;;;10.00;1.77;;;;;;;10.99;38.25;101285.06;4993169;28;97100;-81
2022/02/25 09:53:39;;;;;;;10.38;1.52;;;;;;;11.05;37.90;101280.44;5000275;28;99121;-79
2022/02/25 09:56:06;;;;;;;10.77;1.95;;;;;;;10.29;39.10;101281.69;5006399;28;99222;-79
2022/02/25 09:58:33;;;;;;;7.80;2.22;;;;;;;11.17;37.93;101287.16;4978050;28;97679;-78
2022/02/25 10:00:59;;;;;;;13.40;1.73;;;;;;;10.34;38.94;101296.50;4986597;28;96860;-79
2022/02/25 10:03:30;;;;;;;14.27;2.40;;;;;;;10.08;39.60;101306.84;4984700;28;97821;-78
2022/02/25 10:06:05;;;;;;;7.88;1.60;;;;;;;10.40;38.90;101290.19;4980006;28;97663;-77
2022/02/25 10:08:31;;;;;;;10.02;2.42;;;;;;;10.85;37.92;101305.72;4977084;28;97354;-78
2022/02/25 10:11:02;;;;;;;7.32;1.70;;;;;;;10.69;38.19;101308.81;4980850;28;96824;-81
2022/02/25 10:13:30;;;;;;;7.78;1.60;;;;;;;11.35;36.84;101299.88;4981030;28;99344;-81
2022/02/25 10:15:59;;;;;;;8.90;1.90;;;;;;;10.98;37.38;101320.34;4983033;28;101555;-81
2022/02/25 10:18:29;;;;;;;9.27;1.95;;;;;;;10.58;38.02;101304.69;4984325;28;96872;-79
2022/02/25 10:21:02;;;;;;;11.35;1.80;;;;;;;11.45;36.95;101314.53;4990222;28;98677;-82
2022/02/25 10:26:09;;;;;;;7.75;1.90;;;;;;;12.47;34.95;101300.66;5594723;22;99677;-77
2022/02/25 10:28:52;;;;;;;7.72;1.73;;;;;;;12.37;34.97;101304.53;4994452;28;96758;-81
2022/02/25 10:31:30;;;;;;;14.60;1.50;;;;;;;11.88;35.44;101315.91;4994230;28;96879;-81
2022/02/25 10:34:06;;;;;;;8.90;2.03;;;;;;;11.39;36.46;101320.00;4994365;28;98758;-74
2022/02/25 10:36:44;;;;;;;13.10;1.95;;;;;;;10.39;38.03;101321.03;4999556;28;98826;-75
2022/02/25 10:39:11;;;;;;;8.38;1.42;;;;;;;11.00;37.17;101318.53;5003260;28;98001;-74
2022/02/25 10:41:38;;;;;;;9.07;1.60;;;;;;;10.41;38.09;101321.00;5007337;28;96776;-75
2022/02/25 10:44:05;;;;;;;9.82;2.10;;;;;;;10.60;37.55;101313.47;5011210;28;98999;-75
2022/02/25 10:46:31;;;;;;;7.00;1.85;;;;;;;10.55;38.06;101316.22;5008557;28;99246;-74
2022/02/25 10:49:07;;;;;;;9.82;2.40;;;;;;;10.23;38.64;101324.13;5008968;28;97654;-75
2022/02/25 10:51:36;;;;;;;9.15;2.15;;;;;;;11.03;37.27;101321.94;5013117;28;97147;-76
2022/02/25 10:54:04;;;;;;;11.68;1.60;;;;;;;10.78;37.66;101319.09;5009929;28;99053;-75
2022/02/25 10:56:43;;;;;;;8.15;1.90;;;;;;;10.99;37.60;101306.22;5013255;28;99410;-75
2022/02/25 10:59:11;;;;;;;11.63;1.90;;;;;;;11.40;36.87;101313.81;5006610;28;96815;-75
2022/02/25 11:01:38;;;;;;;7.63;1.67;;;;;;;10.90;36.96;101309.97;5009824;28;96925;-75
2022/02/25 11:04:08;;;;;;;14.50;2.72;;;;;;;11.23;36.76;101318.72;5006200;28;99348;-76
2022/02/25 11:06:35;;;;;;;11.10;1.80;;;;;;;11.20;36.65;101310.88;5006604;28;99436;-75
2022/02/25 11:09:04;;;;;;;10.40;1.80;;;;;;;10.88;37.26;101329.44;5005633;28;97124;-76
2022/02/25 11:11:30;;;;;;;9.75;1.60;;;;;;;10.65;37.89;101307.13;5013531;28;97300;-77
2022/02/25 11:13:58;;;;;;;12.50;1.65;;;;;;;10.96;37.74;101308.97;5004265;28;98926;-76
2022/02/25 11:16:25;;;;;;;9.38;1.73;;;;;;;11.26;37.10;101313.34;5004895;28;98296;-77
2022/02/25 11:18:51;;;;;;;11.73;1.63;;;;;;;11.80;36.30;101315.28;5000410;28;96832;-77
2022/02/25 11:21:20;;;;;;;10.38;2.05;;;;;;;11.85;35.54;101300.09;5011846;28;96860;-77
2022/02/25 11:23:46;;;;;;;11.52;1.60;;;;;;;12.11;35.11;101297.47;5003854;28;99404;-77
2022/02/25 11:26:13;;;;;;;7.65;1.60;;;;;;;12.25;35.03;101295.25;5000412;28;99005;-75
2022/02/25 11:28:42;;;;;;;9.60;1.80;;;;;;;12.17;34.96;101302.56;5005571;28;98367;-75
2022/02/25 11:31:16;;;;;;;9.55;1.35;;;;;;;11.59;36.01;101298.25;5010398;28;97017;-77
2022/02/25 11:33:42;;;;;;;10.05;1.65;;;;;;;11.32;36.59;101292.00;5007231;28;99436;-76
2022/02/25 11:36:11;;;;;;;6.90;1.70;;;;;;;11.77;36.13;101302.13;5009224;28;99192;-76
2022/02/25 11:38:42;;;;;;;9.73;2.03;;;;;;;11.89;35.78;101299.06;5007137;28;98857;-77